Terminal Aerodrome Forecast
Issued by NWS Sterling, VA

Current Version | Previous Version | Text Only | Print | Product List | Glossary Off
Versions: 1 2 3 4 5 6 7 8 9 10 11 12 13 14 15 16 17 18 19 20 21 22 23 24 25 26 27

000
FTUS41 KLWX 171400 AAA
TAFDCA
TAF AMD
KDCA 171448Z 1715/1812 23005KT P6SM FEW110
     FM172000 20009KT P6SM FEW040
     FM181100 26007KT P6SM FEW045=

USA.gov is the U.S. government's official web portal to all federal, state and local government web resources and services.